Time;durP1;ratioP1;P1;durP2;ratioP2;P2;SDS_P1;SDS_P2;PMS_P1;PMS_P2;Temp;Humidity;BMP_temperature;BMP_pressure;BME280_temperature;BME280_humidity;BME280_pressure;Samples;Min_cycle;Max_cycle;Signal;HPM_P1;HPM_P2
2022/10/12 00:00:06;;;;;;;19.17;15.73;;;15.10;99.90;;;;;;4973552;28;20173;-71
2022/10/12 00:06:10;;;;;;;17.97;16.13;;;15.00;99.90;;;;;;4969676;28;20536;-69
2022/10/12 00:08:36;;;;;;;27.93;20.50;;;15.00;99.90;;;;;;4973005;28;20420;-69
2022/10/12 00:11:04;;;;;;;20.73;15.97;;;15.00;99.90;;;;;;5014862;28;20428;-69
2022/10/12 00:13:30;;;;;;;20.47;17.67;;;14.90;99.90;;;;;;5047434;28;20428;-69
2022/10/12 00:15:55;;;;;;;21.27;19.03;;;14.80;99.90;;;;;;5035808;28;20467;-69
2022/10/12 00:18:21;;;;;;;17.03;14.73;;;14.70;99.90;;;;;;5035635;28;20417;-70
2022/10/12 00:20:47;;;;;;;19.33;16.13;;;14.70;99.90;;;;;;5010100;28;20176;-70
2022/10/12 00:23:13;;;;;;;19.13;15.97;;;14.70;99.90;;;;;;4953463;28;20189;-70
2022/10/12 00:25:39;;;;;;;22.73;17.87;;;14.60;99.90;;;;;;4953639;29;20174;-70
2022/10/12 00:28:06;;;;;;;21.03;16.03;;;14.50;99.90;;;;;;4951927;28;20189;-70
2022/10/12 00:30:33;;;;;;;20.60;18.40;;;14.50;99.90;;;;;;4990015;23;20548;-69
2022/10/12 00:32:58;;;;;;;22.73;19.73;;;14.50;99.90;;;;;;5030575;28;20417;-69
2022/10/12 00:35:24;;;;;;;19.87;17.77;;;14.40;99.90;;;;;;4994144;28;20455;-70
2022/10/12 00:37:55;;;;;;;25.40;20.80;;;14.40;99.90;;;;;;5051156;28;20176;-69
2022/10/12 00:40:22;;;;;;;24.23;18.33;;;14.40;99.90;;;;;;5072846;28;20346;-70
2022/10/12 00:42:48;;;;;;;18.80;15.50;;;14.40;99.90;;;;;;5073213;28;20406;-69
2022/10/12 00:45:14;;;;;;;27.43;20.90;;;14.40;99.90;;;;;;5074365;28;20407;-69
2022/10/12 00:47:53;;;;;;;24.03;20.40;;;14.40;99.90;;;;;;5073549;28;20492;-69
2022/10/12 00:50:26;;;;;;;23.70;19.60;;;14.20;99.90;;;;;;5029351;28;20457;-69
2022/10/12 00:53:23;;;;;;;27.77;22.00;;;14.20;99.90;;;;;;4972787;28;20405;-69
2022/10/12 00:55:54;;;;;;;28.13;22.47;;;14.10;99.90;;;;;;4969364;28;20546;-69
2022/10/12 00:58:20;;;;;;;19.23;17.00;;;14.10;99.90;;;;;;4972750;28;20422;-69
2022/10/12 01:00:46;;;;;;;21.43;17.43;;;14.10;99.90;;;;;;4972450;28;20993;-69
2022/10/12 01:03:16;;;;;;;26.13;20.13;;;14.10;99.90;;;;;;4971700;28;20412;-69
2022/10/12 01:05:42;;;;;;;21.27;16.83;;;14.20;99.90;;;;;;4972137;28;20160;-69
2022/10/12 01:08:08;;;;;;;20.50;17.60;;;14.20;99.90;;;;;;4972784;28;20410;-69
2022/10/12 01:10:34;;;;;;;23.07;19.07;;;14.20;99.90;;;;;;4972352;28;20199;-69
2022/10/12 01:13:00;;;;;;;26.53;22.20;;;14.20;99.90;;;;;;4971135;28;20245;-69
2022/10/12 01:15:32;;;;;;;22.57;19.03;;;14.20;99.90;;;;;;4972129;28;20193;-69
2022/10/12 01:18:24;;;;;;;22.63;16.90;;;14.20;99.90;;;;;;4971976;28;20468;-69
2022/10/12 01:21:10;;;;;;;25.83;16.97;;;14.30;99.90;;;;;;4970786;28;20886;-69
2022/10/12 01:24:11;;;;;;;28.40;18.40;;;14.30;99.90;;;;;;4972371;28;20384;-69
2022/10/12 01:27:01;;;;;;;19.70;16.57;;;14.20;99.90;;;;;;4971204;28;20913;-69
2022/10/12 01:30:13;;;;;;;19.30;16.50;;;14.30;99.90;;;;;;4970642;28;20897;-69
2022/10/12 01:32:56;;;;;;;17.23;15.27;;;14.30;99.90;;;;;;4912795;29;20423;-69
2022/10/12 01:35:26;;;;;;;23.47;20.53;;;14.20;99.90;;;;;;4966034;28;20572;-69
2022/10/12 01:37:56;;;;;;;21.60;18.17;;;14.10;99.90;;;;;;4970950;28;20414;-69
2022/10/12 01:40:56;;;;;;;18.10;14.90;;;14.00;99.90;;;;;;4971949;28;20507;-69
2022/10/12 01:43:22;;;;;;;18.80;16.73;;;14.10;99.90;;;;;;4960252;28;20426;-69
2022/10/12 01:45:48;;;;;;;20.17;16.80;;;14.10;99.90;;;;;;4970964;28;20426;-69
2022/10/12 01:48:15;;;;;;;26.60;18.10;;;14.10;99.90;;;;;;4972056;28;20484;-69
2022/10/12 01:50:49;;;;;;;20.87;17.60;;;14.00;99.90;;;;;;4970402;28;20497;-69
2022/10/12 01:53:19;;;;;;;18.50;16.50;;;13.90;99.90;;;;;;4969582;28;20433;-69
2022/10/12 01:55:50;;;;;;;19.67;17.57;;;13.90;99.90;;;;;;4970819;28;20461;-68
2022/10/12 01:58:24;;;;;;;20.40;17.70;;;13.90;99.90;;;;;;4971289;28;20399;-69
2022/10/12 02:00:58;;;;;;;18.27;16.27;;;13.90;99.90;;;;;;4971287;28;20934;-69
2022/10/12 02:03:41;;;;;;;24.37;18.40;;;13.90;99.90;;;;;;4971297;28;20406;-69
2022/10/12 02:06:15;;;;;;;18.53;16.53;;;13.90;99.90;;;;;;4970334;28;20429;-69
2022/10/12 02:08:57;;;;;;;19.40;14.83;;;13.80;99.90;;;;;;4971412;28;20422;-70
2022/10/12 02:11:26;;;;;;;23.40;18.47;;;13.70;99.90;;;;;;4969057;28;20431;-69
2022/10/12 02:14:04;;;;;;;22.40;17.70;;;13.70;99.90;;;;;;4971278;28;20938;-69
2022/10/12 02:16:44;;;;;;;18.30;16.40;;;13.70;99.90;;;;;;4970886;28;20424;-69
2022/10/12 02:19:14;;;;;;;21.60;18.20;;;13.60;99.90;;;;;;4970110;28;20457;-69
2022/10/12 02:21:40;;;;;;;22.33;17.27;;;13.60;99.90;;;;;;4970961;28;20793;-69
2022/10/12 02:24:08;;;;;;;17.87;16.10;;;13.50;99.90;;;;;;4971337;28;20857;-69
2022/10/12 02:26:39;;;;;;;20.00;16.70;;;13.50;99.90;;;;;;4970066;28;20439;-69
2022/10/12 02:29:12;;;;;;;28.63;17.47;;;13.50;99.90;;;;;;4971405;28;20560;-69
2022/10/12 02:32:02;;;;;;;25.30;19.87;;;13.50;99.90;;;;;;4970825;28;20848;-69
2022/10/12 02:34:36;;;;;;;22.30;18.77;;;13.50;99.90;;;;;;4971371;28;20546;-69
2022/10/12 02:37:08;;;;;;;21.23;18.40;;;13.30;99.90;;;;;;4970641;28;20397;-69
2022/10/12 02:39:42;;;;;;;25.07;19.40;;;13.30;99.90;;;;;;4970664;28;20518;-69
2022/10/12 02:42:14;;;;;;;19.10;17.07;;;13.30;99.90;;;;;;4970545;28;20396;-69
2022/10/12 02:44:42;;;;;;;20.10;17.17;;;13.30;99.90;;;;;;4969415;28;20912;-69
2022/10/12 02:47:09;;;;;;;20.00;17.33;;;13.40;99.90;;;;;;4971121;28;20480;-69
2022/10/12 02:49:35;;;;;;;20.30;18.13;;;13.40;99.90;;;;;;4970940;28;20452;-69
2022/10/12 02:52:03;;;;;;;18.57;16.70;;;13.40;99.90;;;;;;4972988;28;20427;-69
2022/10/12 02:54:29;;;;;;;22.53;18.13;;;13.40;99.90;;;;;;4973706;28;20489;-69
2022/10/12 02:56:55;;;;;;;22.87;18.43;;;13.40;99.90;;;;;;4974501;28;20410;-69
2022/10/12 02:59:20;;;;;;;24.27;21.10;;;13.40;99.90;;;;;;4974795;28;20487;-69
2022/10/12 03:01:46;;;;;;;27.50;20.03;;;13.50;99.90;;;;;;4974328;28;20170;-69
2022/10/12 03:04:11;;;;;;;24.73;20.60;;;13.40;99.90;;;;;;4974385;28;20246;-68
2022/10/12 03:06:37;;;;;;;25.93;17.20;;;13.50;99.90;;;;;;4974112;28;20585;-68
2022/10/12 03:09:04;;;;;;;21.30;18.33;;;13.40;99.90;;;;;;4974526;28;20232;-69
2022/10/12 03:11:30;;;;;;;25.10;20.00;;;13.50;99.90;;;;;;4974716;28;20197;-68
2022/10/12 03:13:56;;;;;;;19.13;17.20;;;13.50;99.90;;;;;;4974493;28;20405;-69
2022/10/12 03:16:23;;;;;;;21.77;18.50;;;13.60;99.90;;;;;;4974468;28;20888;-69
2022/10/12 03:18:50;;;;;;;18.50;15.90;;;13.60;99.90;;;;;;4974335;28;20778;-69
2022/10/12 03:21:16;;;;;;;20.67;18.60;;;13.60;99.90;;;;;;4972982;28;20848;-69
2022/10/12 03:23:41;;;;;;;18.27;16.33;;;13.60;99.90;;;;;;4973954;28;20467;-69
2022/10/12 03:26:07;;;;;;;18.67;16.70;;;13.70;99.90;;;;;;4971475;28;20551;-69
2022/10/12 03:28:33;;;;;;;21.10;18.77;;;13.90;99.90;;;;;;4966040;28;20195;-69
2022/10/12 03:30:59;;;;;;;23.93;16.73;;;14.00;99.90;;;;;;4973022;28;20671;-69
2022/10/12 03:33:25;;;;;;;22.80;17.20;;;14.10;99.90;;;;;;4974357;28;20428;-69
2022/10/12 03:35:51;;;;;;;20.40;16.90;;;14.00;99.90;;;;;;4974777;28;20200;-69
2022/10/12 03:38:18;;;;;;;18.23;16.27;;;14.10;99.90;;;;;;4973690;28;20590;-69
2022/10/12 03:40:44;;;;;;;21.77;16.50;;;14.10;99.90;;;;;;4974094;28;20522;-69
2022/10/12 03:43:10;;;;;;;20.17;17.97;;;14.00;99.90;;;;;;4973064;28;20422;-68
2022/10/12 03:45:35;;;;;;;22.60;18.80;;;13.90;99.90;;;;;;4974118;28;20416;-68
2022/10/12 03:48:02;;;;;;;25.50;19.47;;;13.90;99.90;;;;;;4974222;28;20266;-69
2022/10/12 03:50:28;;;;;;;17.73;15.83;;;14.00;99.90;;;;;;4973904;28;20198;-69
2022/10/12 03:52:53;;;;;;;16.13;14.43;;;14.00;99.90;;;;;;4973751;28;20482;-69
2022/10/12 03:55:19;;;;;;;17.70;15.83;;;14.10;99.90;;;;;;4973748;28;20219;-69
2022/10/12 03:57:44;;;;;;;19.50;16.70;;;14.00;99.90;;;;;;4973480;28;20203;-69
2022/10/12 04:00:12;;;;;;;18.83;15.90;;;14.10;99.90;;;;;;4973175;28;20373;-69
2022/10/12 04:02:38;;;;;;;26.53;18.30;;;14.10;99.90;;;;;;4973893;28;20173;-69
2022/10/12 04:05:04;;;;;;;21.97;17.60;;;14.10;99.90;;;;;;4973669;28;20444;-69
2022/10/12 04:07:30;;;;;;;18.60;16.00;;;14.10;99.90;;;;;;4973554;28;20415;-69
2022/10/12 04:09:55;;;;;;;25.57;19.37;;;14.10;99.90;;;;;;4973538;28;20423;-69
2022/10/12 04:12:21;;;;;;;18.63;16.80;;;14.10;99.90;;;;;;4973197;28;20177;-69
2022/10/12 04:14:47;;;;;;;23.30;20.00;;;14.10;99.90;;;;;;4973422;28;20199;-68
2022/10/12 04:17:15;;;;;;;20.23;18.00;;;14.10;99.90;;;;;;4972471;28;20172;-69
2022/10/12 04:19:40;;;;;;;21.30;15.57;;;14.20;99.90;;;;;;4973712;28;20207;-69
2022/10/12 04:22:06;;;;;;;21.20;14.77;;;14.20;99.90;;;;;;4972624;28;20805;-67
2022/10/12 04:24:32;;;;;;;19.17;15.03;;;14.30;99.90;;;;;;4973082;28;20165;-69
2022/10/12 04:26:57;;;;;;;24.40;19.10;;;14.40;99.90;;;;;;4973336;28;20212;-68
2022/10/12 04:29:23;;;;;;;23.83;18.13;;;14.40;99.90;;;;;;4973033;28;20704;-69
2022/10/12 04:31:48;;;;;;;22.97;19.50;;;14.50;99.90;;;;;;4972346;28;20178;-68
2022/10/12 04:34:14;;;;;;;15.33;13.70;;;14.50;99.90;;;;;;4973087;28;20193;-68
2022/10/12 04:36:39;;;;;;;19.20;17.20;;;14.60;99.90;;;;;;4973294;28;20681;-68
2022/10/12 04:39:05;;;;;;;21.47;17.10;;;14.60;99.90;;;;;;4971710;28;20187;-68
2022/10/12 04:41:31;;;;;;;20.63;15.97;;;14.60;99.90;;;;;;4973267;28;20169;-68
2022/10/12 04:43:57;;;;;;;18.63;15.40;;;14.60;99.90;;;;;;4973386;28;20165;-68
2022/10/12 04:46:22;;;;;;;18.90;17.00;;;14.70;99.90;;;;;;4972122;28;20172;-68
2022/10/12 04:48:48;;;;;;;16.70;15.00;;;14.70;99.90;;;;;;4972842;28;20256;-68
2022/10/12 04:51:13;;;;;;;17.33;15.43;;;14.70;99.90;;;;;;4972970;28;20169;-68
2022/10/12 04:53:39;;;;;;;22.20;18.63;;;14.70;99.90;;;;;;4972581;28;20173;-67
2022/10/12 04:56:05;;;;;;;23.33;18.93;;;14.80;99.90;;;;;;4972589;28;20680;-68
2022/10/12 04:58:31;;;;;;;21.23;17.60;;;14.70;99.90;;;;;;4972635;28;20180;-67
2022/10/12 05:00:57;;;;;;;23.23;17.30;;;14.70;99.90;;;;;;4972003;28;20788;-68
2022/10/12 05:03:23;;;;;;;20.77;18.10;;;14.70;99.90;;;;;;4973081;28;20901;-67
2022/10/12 05:05:49;;;;;;;19.80;17.90;;;14.80;99.90;;;;;;4972379;28;20406;-67
2022/10/12 05:08:15;;;;;;;22.23;18.70;;;14.80;99.90;;;;;;4972089;28;20428;-67
2022/10/12 05:10:40;;;;;;;19.83;17.33;;;14.90;99.90;;;;;;4972376;28;20197;-67
2022/10/12 05:13:06;;;;;;;21.40;19.20;;;14.90;99.90;;;;;;4971682;28;20650;-67
2022/10/12 05:15:32;;;;;;;21.20;17.13;;;14.90;99.90;;;;;;4972099;28;20200;-67
2022/10/12 05:17:57;;;;;;;24.43;18.73;;;14.90;99.90;;;;;;4972508;28;20167;-67
2022/10/12 05:20:23;;;;;;;22.17;19.87;;;14.90;99.90;;;;;;4970937;28;20202;-67
2022/10/12 05:22:48;;;;;;;16.57;14.87;;;15.00;99.90;;;;;;4972368;28;20171;-67
2022/10/12 05:25:14;;;;;;;18.63;16.00;;;15.00;99.90;;;;;;4972149;28;20171;-67
2022/10/12 05:27:40;;;;;;;22.97;17.33;;;15.00;99.90;;;;;;4972413;28;20174;-68
2022/10/12 05:30:06;;;;;;;23.53;21.07;;;15.00;99.90;;;;;;4971880;28;20212;-68
2022/10/12 05:32:32;;;;;;;23.37;20.93;;;14.90;99.90;;;;;;4971528;28;20588;-68
2022/10/12 05:34:57;;;;;;;46.57;39.47;;;14.90;99.90;;;;;;4967109;28;20516;-69
2022/10/12 05:37:23;;;;;;;24.10;21.50;;;14.90;99.90;;;;;;4963652;28;20176;-70
2022/10/12 05:39:50;;;;;;;25.93;23.23;;;14.90;99.90;;;;;;4972607;28;20667;-69
2022/10/12 05:42:16;;;;;;;20.93;17.30;;;14.90;99.90;;;;;;4972229;28;20641;-69
2022/10/12 05:44:41;;;;;;;21.10;18.17;;;14.90;99.90;;;;;;4972000;28;20550;-69
2022/10/12 05:47:07;;;;;;;20.53;17.80;;;15.00;99.90;;;;;;4972010;28;20189;-69
2022/10/12 05:49:32;;;;;;;21.10;16.43;;;15.00;99.90;;;;;;4971362;28;20187;-69
2022/10/12 05:51:58;;;;;;;24.93;20.87;;;14.90;99.90;;;;;;4971403;28;20260;-68
2022/10/12 05:54:24;;;;;;;24.13;19.47;;;15.00;99.90;;;;;;4970988;28;20225;-68
2022/10/12 05:56:49;;;;;;;24.53;20.23;;;15.10;99.90;;;;;;4971793;28;20199;-69
2022/10/12 05:59:15;;;;;;;30.53;22.07;;;15.10;99.90;;;;;;4971680;28;20199;-69
2022/10/12 06:01:40;;;;;;;25.70;22.03;;;15.20;99.90;;;;;;4970582;28;20189;-69
2022/10/12 06:04:06;;;;;;;24.27;20.50;;;15.20;99.90;;;;;;4971063;28;20170;-69
2022/10/12 06:06:32;;;;;;;26.70;22.57;;;15.20;99.90;;;;;;4971228;28;20189;-69
2022/10/12 06:08:57;;;;;;;28.93;23.73;;;15.20;99.90;;;;;;4971609;28;20281;-69
2022/10/12 06:11:23;;;;;;;25.73;20.53;;;15.20;99.90;;;;;;4971559;28;20251;-68
2022/10/12 06:13:49;;;;;;;25.60;21.63;;;15.20;99.90;;;;;;4971939;28;20188;-69
2022/10/12 06:16:14;;;;;;;29.63;23.77;;;15.30;99.90;;;;;;4970494;28;20241;-69
2022/10/12 06:18:40;;;;;;;27.90;22.37;;;15.30;99.90;;;;;;4970012;28;20173;-69
2022/10/12 06:21:05;;;;;;;30.30;23.87;;;15.40;99.90;;;;;;4971042;28;20172;-68
2022/10/12 06:23:31;;;;;;;29.57;25.20;;;15.40;99.90;;;;;;4969896;28;20194;-69
2022/10/12 06:25:56;;;;;;;35.07;26.10;;;15.40;99.90;;;;;;4970137;28;20174;-68
2022/10/12 06:28:22;;;;;;;30.57;25.60;;;15.40;99.90;;;;;;4971253;28;20244;-69
2022/10/12 06:30:55;;;;;;;30.00;24.70;;;15.40;99.90;;;;;;4997442;23;20643;-73
2022/10/12 06:33:21;;;;;;;30.60;26.93;;;15.40;99.90;;;;;;4970996;28;20534;-73
2022/10/12 06:35:46;;;;;;;28.03;25.00;;;15.50;99.90;;;;;;4972402;28;20461;-73
2022/10/12 06:38:12;;;;;;;29.17;25.83;;;15.50;99.90;;;;;;4971924;28;20282;-72
2022/10/12 06:40:38;;;;;;;25.20;21.00;;;15.50;99.90;;;;;;4971562;28;20270;-73
2022/10/12 06:43:03;;;;;;;23.10;20.70;;;15.60;99.90;;;;;;4971612;28;20172;-72
2022/10/12 06:45:29;;;;;;;26.00;23.30;;;15.50;99.90;;;;;;4971143;28;20192;-72
2022/10/12 06:47:55;;;;;;;27.63;22.00;;;15.50;99.90;;;;;;4971973;28;20172;-72
2022/10/12 06:50:21;;;;;;;21.83;19.53;;;15.50;99.90;;;;;;4971999;28;20207;-73
2022/10/12 06:52:47;;;;;;;23.13;19.67;;;15.50;99.90;;;;;;4971932;28;20405;-74
2022/10/12 06:55:12;;;;;;;30.63;20.63;;;15.50;99.90;;;;;;4971546;28;20680;-73
2022/10/12 06:57:38;;;;;;;27.20;22.53;;;15.60;99.90;;;;;;4971595;28;20203;-71
2022/10/12 07:00:06;;;;;;;25.60;22.90;;;15.60;99.90;;;;;;4971159;28;20256;-72
2022/10/12 07:02:33;;;;;;;25.47;22.67;;;15.70;99.90;;;;;;4971387;28;20169;-72
2022/10/12 07:04:59;;;;;;;24.47;21.87;;;15.80;99.90;;;;;;4971696;28;20437;-74
2022/10/12 07:07:24;;;;;;;23.77;19.87;;;15.70;99.90;;;;;;4971774;28;20893;-73
2022/10/12 07:09:51;;;;;;;22.63;20.03;;;15.70;99.90;;;;;;4971686;28;20199;-73
2022/10/12 07:12:16;;;;;;;27.70;22.30;;;15.80;99.90;;;;;;4972036;28;20163;-72
2022/10/12 07:14:42;;;;;;;26.63;23.37;;;15.80;99.90;;;;;;4971894;28;20931;-75
2022/10/12 07:17:08;;;;;;;26.37;22.83;;;15.80;99.90;;;;;;4971199;28;20653;-74
2022/10/12 07:19:33;;;;;;;22.83;20.33;;;15.80;99.90;;;;;;4971038;28;20189;-73
2022/10/12 07:22:00;;;;;;;22.13;19.73;;;15.90;99.90;;;;;;4971623;28;20246;-71
2022/10/12 07:24:34;;;;;;;24.67;19.97;;;15.90;99.90;;;;;;4969979;28;20184;-72
2022/10/12 07:27:00;;;;;;;23.10;20.60;;;16.00;99.90;;;;;;4971579;28;20395;-72
2022/10/12 07:29:26;;;;;;;23.10;20.47;;;15.90;99.90;;;;;;4971155;28;20415;-72
2022/10/12 07:31:51;;;;;;;25.43;21.23;;;15.90;99.90;;;;;;4971239;28;20398;-71
2022/10/12 07:34:17;;;;;;;25.90;23.10;;;16.00;99.90;;;;;;4971066;28;20287;-72
2022/10/12 07:36:43;;;;;;;23.53;19.80;;;16.10;99.90;;;;;;4971449;28;20578;-70
2022/10/12 07:39:09;;;;;;;24.57;18.70;;;16.20;99.90;;;;;;4974005;28;20171;-72
2022/10/12 07:41:35;;;;;;;28.73;22.90;;;16.20;99.90;;;;;;4972936;28;20416;-73
2022/10/12 07:44:00;;;;;;;23.77;19.57;;;16.20;99.90;;;;;;4974402;28;20200;-73
2022/10/12 07:46:26;;;;;;;22.90;20.20;;;16.20;99.90;;;;;;4974637;28;20173;-72
2022/10/12 07:48:51;;;;;;;22.30;19.30;;;16.30;99.90;;;;;;4974474;28;20166;-74
2022/10/12 07:51:17;;;;;;;26.30;20.30;;;16.10;99.90;;;;;;4973354;28;20613;-75
2022/10/12 07:53:43;;;;;;;28.33;22.57;;;16.00;99.90;;;;;;4973768;28;20177;-74
2022/10/12 07:56:14;;;;;;;27.93;20.87;;;16.10;99.90;;;;;;4973953;28;20201;-75
2022/10/12 07:58:41;;;;;;;25.63;19.30;;;16.30;99.90;;;;;;4973194;28;20210;-72
2022/10/12 08:01:08;;;;;;;34.37;21.47;;;16.40;99.90;;;;;;4974278;28;20569;-73
2022/10/12 08:03:34;;;;;;;22.10;18.93;;;16.40;99.90;;;;;;4974288;28;20866;-73
2022/10/12 08:06:10;;;;;;;27.80;22.50;;;16.20;99.90;;;;;;4974091;28;20778;-73
2022/10/12 08:08:36;;;;;;;24.03;20.23;;;16.60;99.90;;;;;;4973355;28;20394;-73
2022/10/12 08:11:03;;;;;;;28.83;21.50;;;16.70;99.90;;;;;;4974247;28;20432;-74
2022/10/12 08:13:29;;;;;;;24.07;20.07;;;16.50;99.90;;;;;;4974488;28;20601;-74
2022/10/12 08:15:55;;;;;;;26.30;19.60;;;16.30;99.90;;;;;;4988517;28;20487;-75
2022/10/12 08:18:20;;;;;;;21.97;18.87;;;16.20;99.90;;;;;;4974263;28;20910;-73
2022/10/12 08:20:46;;;;;;;23.77;21.17;;;16.40;99.90;;;;;;4972087;28;20576;-73
2022/10/12 08:23:11;;;;;;;26.03;21.60;;;16.70;99.90;;;;;;4971740;28;20536;-75
2022/10/12 08:25:37;;;;;;;27.07;21.03;;;17.00;99.90;;;;;;4971938;28;20640;-73
2022/10/12 08:28:04;;;;;;;25.30;21.60;;;17.10;99.90;;;;;;4981785;28;20185;-72
2022/10/12 08:30:31;;;;;;;25.70;20.70;;;17.10;99.90;;;;;;5007923;28;20249;-71
2022/10/12 08:32:57;;;;;;;27.33;20.87;;;17.30;99.90;;;;;;4973326;28;20875;-73
2022/10/12 08:35:22;;;;;;;24.00;19.90;;;17.30;99.90;;;;;;4973355;28;20502;-73
2022/10/12 08:37:48;;;;;;;22.23;18.50;;;17.60;99.90;;;;;;4973643;28;20197;-74
2022/10/12 08:40:16;;;;;;;21.90;19.13;;;17.90;99.90;;;;;;4972524;28;20536;-74
2022/10/12 08:43:09;;;;;;;24.33;20.20;;;18.00;99.90;;;;;;4973704;28;20643;-71
2022/10/12 08:45:57;;;;;;;23.30;19.53;;;17.70;99.90;;;;;;4973605;28;20389;-72
2022/10/12 08:48:34;;;;;;;24.33;19.33;;;17.80;99.90;;;;;;4972595;28;20408;-71
2022/10/12 08:51:04;;;;;;;24.30;18.87;;;18.00;99.90;;;;;;4972718;28;20474;-72
2022/10/12 08:53:53;;;;;;;23.07;20.63;;;17.80;99.90;;;;;;4972510;28;20440;-75
2022/10/12 08:56:20;;;;;;;25.50;18.20;;;17.70;99.90;;;;;;4973031;28;20448;-72
2022/10/12 08:58:48;;;;;;;26.97;18.77;;;17.80;99.90;;;;;;4972855;28;20440;-71
2022/10/12 09:01:19;;;;;;;25.57;22.80;;;18.10;99.90;;;;;;4972938;28;20420;-71
2022/10/12 09:03:51;;;;;;;27.27;19.80;;;18.20;99.90;;;;;;4971994;28;20421;-74
2022/10/12 09:06:59;;;;;;;22.93;19.40;;;18.00;99.90;;;;;;4973150;28;20880;-72
2022/10/12 09:09:36;;;;;;;21.43;18.90;;;18.20;99.90;;;;;;4973084;28;20496;-71
2022/10/12 09:12:27;;;;;;;23.67;19.90;;;18.10;99.90;;;;;;4972087;28;20503;-71
2022/10/12 09:14:59;;;;;;;20.00;17.80;;;17.80;99.90;;;;;;4973267;28;20441;-72
2022/10/12 09:17:47;;;;;;;20.37;17.07;;;17.70;99.90;;;;;;4972789;28;20907;-72
2022/10/12 09:20:20;;;;;;;21.03;17.43;;;17.80;99.90;;;;;;4971024;28;20443;-72
2022/10/12 09:22:49;;;;;;;22.33;17.93;;;17.60;99.90;;;;;;4971844;28;20508;-72
2022/10/12 09:25:16;;;;;;;22.57;17.87;;;17.70;99.90;;;;;;4972078;28;20409;-72
2022/10/12 09:27:45;;;;;;;23.77;20.10;;;17.80;99.90;;;;;;4973001;28;20936;-73
2022/10/12 09:30:14;;;;;;;20.57;17.17;;;17.90;99.90;;;;;;4972512;28;20999;-73
2022/10/12 09:33:18;;;;;;;16.83;15.10;;;18.00;99.90;;;;;;4973023;28;20405;-72
2022/10/12 09:35:46;;;;;;;20.30;15.73;;;18.30;99.90;;;;;;4972826;28;20450;-73
2022/10/12 09:38:12;;;;;;;15.90;14.17;;;18.00;99.90;;;;;;4972514;28;20405;-73
2022/10/12 09:40:38;;;;;;;17.53;15.73;;;17.90;99.90;;;;;;4972215;28;20524;-74
2022/10/12 09:43:04;;;;;;;20.27;16.27;;;18.00;99.90;;;;;;4972489;28;20756;-73
2022/10/12 09:45:32;;;;;;;17.40;14.47;;;17.80;99.90;;;;;;4972666;28;20422;-75
2022/10/12 09:48:08;;;;;;;17.63;14.20;;;17.90;99.90;;;;;;4972378;28;20409;-73
2022/10/12 09:50:42;;;;;;;17.60;14.40;;;17.90;99.90;;;;;;4972135;28;20430;-73
2022/10/12 09:53:24;;;;;;;15.30;13.07;;;18.20;99.90;;;;;;4972230;28;20424;-71
2022/10/12 09:55:55;;;;;;;16.90;12.53;;;18.20;99.90;;;;;;4972134;28;20447;-76
2022/10/12 09:58:21;;;;;;;21.83;14.90;;;18.20;99.90;;;;;;4972562;28;20405;-75
2022/10/12 10:01:18;;;;;;;21.23;14.73;;;18.40;99.90;;;;;;4971468;28;20448;-76
2022/10/12 10:03:46;;;;;;;18.80;15.03;;;18.20;99.90;;;;;;4972204;28;20408;-74
2022/10/12 10:06:14;;;;;;;17.90;13.40;;;18.20;99.90;;;;;;4972251;28;20790;-74
2022/10/12 10:08:44;;;;;;;15.13;13.10;;;18.20;99.90;;;;;;4971820;28;20463;-74
2022/10/12 10:11:25;;;;;;;17.70;12.50;;;18.20;99.90;;;;;;4970183;28;20516;-72
2022/10/12 10:13:53;;;;;;;17.50;13.10;;;18.10;99.90;;;;;;4971785;28;20444;-70
2022/10/12 10:16:23;;;;;;;17.90;13.60;;;18.00;99.90;;;;;;4971692;28;20457;-72
2022/10/12 10:18:57;;;;;;;14.83;13.23;;;17.90;99.90;;;;;;4972255;28;20420;-71
2022/10/12 10:21:36;;;;;;;15.87;11.80;;;17.80;99.90;;;;;;4972190;28;20975;-72
2022/10/12 10:24:18;;;;;;;12.97;11.63;;;18.00;99.90;;;;;;4971251;28;20920;-72
2022/10/12 10:27:00;;;;;;;16.63;14.07;;;18.20;99.90;;;;;;4973013;28;20393;-72
2022/10/12 10:29:39;;;;;;;16.97;12.40;;;17.90;99.90;;;;;;4971311;28;20456;-72
2022/10/12 10:32:25;;;;;;;16.37;13.83;;;18.20;99.90;;;;;;4972476;28;20442;-73
2022/10/12 10:35:03;;;;;;;16.27;13.23;;;18.40;99.90;;;;;;4971954;28;20445;-72
2022/10/12 10:37:30;;;;;;;14.90;12.60;;;18.10;99.90;;;;;;4971199;28;20415;-71
2022/10/12 10:39:57;;;;;;;15.83;12.93;;;18.30;99.90;;;;;;4971861;28;20421;-72
2022/10/12 10:42:30;;;;;;;14.63;11.40;;;18.30;99.90;;;;;;4971809;28;20409;-71
2022/10/12 10:45:05;;;;;;;19.10;12.60;;;18.30;99.90;;;;;;4971916;28;20412;-72
2022/10/12 10:47:33;;;;;;;16.70;10.67;;;18.40;99.90;;;;;;4971169;28;20424;-72
2022/10/12 10:50:01;;;;;;;16.50;11.17;;;18.30;99.90;;;;;;4971698;28;20540;-73
2022/10/12 10:52:33;;;;;;;14.90;11.43;;;18.60;99.90;;;;;;4971265;28;20441;-72
2022/10/12 10:55:20;;;;;;;16.80;13.13;;;18.70;99.90;;;;;;4969884;28;20522;-72
2022/10/12 10:57:59;;;;;;;19.57;12.60;;;18.70;99.90;;;;;;4970337;28;20405;-74
2022/10/12 11:00:28;;;;;;;11.90;10.70;;;18.70;99.90;;;;;;4971182;28;20922;-73
2022/10/12 11:02:56;;;;;;;14.53;11.40;;;18.60;99.90;;;;;;4971462;28;20416;-71
2022/10/12 11:05:28;;;;;;;17.23;11.97;;;18.40;99.90;;;;;;4971762;28;20401;-73
2022/10/12 11:07:57;;;;;;;17.17;10.70;;;18.60;99.90;;;;;;4970205;28;20428;-72
2022/10/12 11:10:31;;;;;;;19.93;12.93;;;18.80;99.90;;;;;;4971658;28;20957;-71
2022/10/12 11:13:20;;;;;;;13.50;11.47;;;18.90;99.90;;;;;;4975405;28;20875;-73
2022/10/12 11:15:57;;;;;;;19.03;12.47;;;19.00;99.90;;;;;;4975213;28;20524;-71
2022/10/12 11:18:48;;;;;;;15.60;12.07;;;19.00;99.90;;;;;;4975157;28;20472;-71
2022/10/12 11:21:22;;;;;;;20.03;11.77;;;19.00;99.90;;;;;;4994153;28;20445;-71
2022/10/12 11:23:56;;;;;;;10.67;9.43;;;19.20;99.90;;;;;;4993447;28;20431;-71
2022/10/12 11:26:28;;;;;;;16.67;12.10;;;19.40;99.90;;;;;;4974830;28;20404;-73
2022/10/12 11:28:57;;;;;;;13.13;11.77;;;19.50;99.90;;;;;;4974481;28;20405;-72
2022/10/12 11:31:41;;;;;;;14.70;11.40;;;19.50;99.90;;;;;;4974275;28;20448;-71
2022/10/12 11:34:14;;;;;;;15.20;11.43;;;19.60;99.90;;;;;;4974423;28;20450;-71
2022/10/12 11:36:43;;;;;;;13.07;10.67;;;19.40;99.90;;;;;;4973919;28;20496;-72
2022/10/12 11:39:33;;;;;;;16.67;12.50;;;19.30;99.90;;;;;;4974092;28;20413;-72
2022/10/12 11:42:01;;;;;;;14.80;12.00;;;19.00;99.90;;;;;;4973033;28;20441;-72
2022/10/12 11:44:38;;;;;;;14.57;12.77;;;18.90;99.90;;;;;;4973751;28;20458;-71
2022/10/12 11:47:28;;;;;;;14.23;11.50;;;18.80;99.90;;;;;;4974530;28;20407;-72
2022/10/12 11:50:03;;;;;;;13.83;10.97;;;18.90;99.90;;;;;;4973895;28;20804;-72
2022/10/12 11:52:38;;;;;;;15.40;12.20;;;19.10;99.90;;;;;;4974013;28;20451;-71
2022/10/12 11:55:43;;;;;;;13.17;11.40;;;19.00;99.90;;;;;;4974061;28;20436;-72
2022/10/12 11:58:22;;;;;;;21.87;17.90;;;19.10;99.90;;;;;;4974178;28;20738;-73
2022/10/12 12:01:04;;;;;;;14.87;11.93;;;19.30;99.90;;;;;;4973612;28;20429;-73
2022/10/12 12:03:46;;;;;;;17.03;11.93;;;19.40;99.90;;;;;;4977342;28;20443;-72
2022/10/12 12:06:30;;;;;;;10.40;9.30;;;19.50;99.90;;;;;;5005095;28;20474;-73
2022/10/12 12:09:01;;;;;;;14.10;10.60;;;19.20;99.90;;;;;;5056130;28;20401;-75
2022/10/12 12:11:30;;;;;;;15.40;11.00;;;19.40;99.90;;;;;;5055511;28;20433;-73
2022/10/12 12:14:20;;;;;;;16.90;11.20;;;19.30;99.90;;;;;;5071171;28;20986;-74
2022/10/12 12:16:47;;;;;;;12.03;9.33;;;19.10;99.90;;;;;;5055782;28;20418;-72
2022/10/12 12:19:16;;;;;;;17.80;10.67;;;19.40;99.90;;;;;;5055315;28;20458;-71
2022/10/12 12:22:19;;;;;;;11.50;10.17;;;19.30;99.90;;;;;;5055189;28;20401;-71
2022/10/12 12:24:57;;;;;;;11.13;9.93;;;19.10;99.90;;;;;;4998060;28;20474;-74
2022/10/12 12:27:32;;;;;;;10.80;9.63;;;19.10;99.90;;;;;;4974120;28;20743;-74
2022/10/12 12:30:00;;;;;;;11.20;8.83;;;19.20;99.90;;;;;;4994708;23;20456;-68
2022/10/12 12:32:43;;;;;;;14.33;9.97;;;19.60;99.90;;;;;;4971859;28;20429;-68
2022/10/12 12:35:25;;;;;;;14.50;9.87;;;19.70;99.90;;;;;;4973400;28;20440;-68
2022/10/12 12:38:16;;;;;;;13.00;9.80;;;19.80;99.90;;;;;;4953660;28;20883;-70
2022/10/12 12:40:57;;;;;;;13.17;9.37;;;19.80;99.90;;;;;;4953754;28;20616;-69
2022/10/12 12:43:29;;;;;;;9.87;8.50;;;19.60;99.90;;;;;;4961691;28;20795;-70
2022/10/12 12:46:09;;;;;;;12.57;8.43;;;19.70;99.90;;;;;;4972845;28;20401;-70
2022/10/12 12:48:37;;;;;;;9.03;8.13;;;19.90;99.90;;;;;;4973252;28;20882;-70